sensor_id;sensor_type;location;lat;lon;timestamp;pressure;altitude;pressure_sealevel;temperature;humidity
73870;BME280;64924;42.140;24.762;2023-08-24T00:01:12;99542.78;;;30.39;33.59
73870;BME280;64924;42.140;24.762;2023-08-24T00:03:39;99551.69;;;30.41;33.20
73870;BME280;64924;42.140;24.762;2023-08-24T00:06:05;99548.88;;;30.32;33.56
73870;BME280;64924;42.140;24.762;2023-08-24T00:08:31;99555.47;;;30.36;33.78
73870;BME280;64924;42.140;24.762;2023-08-24T00:10:57;99560.59;;;30.34;33.74
73870;BME280;64924;42.140;24.762;2023-08-24T00:13:23;99458.47;;;29.75;33.57
73870;BME280;64924;42.140;24.762;2023-08-24T00:15:48;99542.41;;;30.14;33.80
73870;BME280;64924;42.140;24.762;2023-08-24T00:18:14;99551.81;;;30.18;34.02
73870;BME280;64924;42.140;24.762;2023-08-24T00:20:39;99540.28;;;30.11;34.08
73870;BME280;64924;42.140;24.762;2023-08-24T00:23:05;99559.56;;;30.13;34.00
73870;BME280;64924;42.140;24.762;2023-08-24T00:25:30;99537.50;;;30.03;33.95
73870;BME280;64924;42.140;24.762;2023-08-24T00:27:56;99556.94;;;29.99;34.40
73870;BME280;64924;42.140;24.762;2023-08-24T00:30:23;99536.25;;;29.86;34.55
73870;BME280;64924;42.140;24.762;2023-08-24T00:32:48;99549.78;;;29.93;34.45
73870;BME280;64924;42.140;24.762;2023-08-24T00:35:14;99461.63;;;29.34;34.55
73870;BME280;64924;42.140;24.762;2023-08-24T00:37:40;99545.00;;;29.93;34.18
73870;BME280;64924;42.140;24.762;2023-08-24T00:40:06;99539.91;;;29.96;34.23
73870;BME280;64924;42.140;24.762;2023-08-24T00:42:42;99538.97;;;30.00;34.40
73870;BME280;64924;42.140;24.762;2023-08-24T00:45:10;99529.19;;;29.89;34.41
73870;BME280;64924;42.140;24.762;2023-08-24T00:47:46;99537.31;;;29.99;34.16
73870;BME280;64924;42.140;24.762;2023-08-24T00:50:13;99543.69;;;29.91;34.18
73870;BME280;64924;42.140;24.762;2023-08-24T00:52:40;99534.44;;;29.82;34.36
73870;BME280;64924;42.140;24.762;2023-08-24T00:55:06;99513.13;;;29.55;34.17
73870;BME280;64924;42.140;24.762;2023-08-24T00:57:33;99546.75;;;29.72;34.25
73870;BME280;64924;42.140;24.762;2023-08-24T01:00:02;99495.41;;;29.37;34.05
73870;BME280;64924;42.140;24.762;2023-08-24T01:02:28;99528.78;;;29.56;34.20
73870;BME280;64924;42.140;24.762;2023-08-24T01:04:53;99505.53;;;29.47;34.19
73870;BME280;64924;42.140;24.762;2023-08-24T01:07:20;99469.38;;;29.28;34.03
73870;BME280;64924;42.140;24.762;2023-08-24T01:09:46;99486.19;;;29.28;34.20
73870;BME280;64924;42.140;24.762;2023-08-24T01:14:56;99473.16;;;29.23;34.21
73870;BME280;64924;42.140;24.762;2023-08-24T01:17:26;99546.00;;;29.41;34.94
73870;BME280;64924;42.140;24.762;2023-08-24T01:19:54;99545.03;;;29.45;34.51
73870;BME280;64924;42.140;24.762;2023-08-24T01:25:17;99529.09;;;29.54;34.48
73870;BME280;64924;42.140;24.762;2023-08-24T01:27:48;99538.13;;;29.43;34.46
73870;BME280;64924;42.140;24.762;2023-08-24T01:30:14;99524.41;;;29.33;34.76
73870;BME280;64924;42.140;24.762;2023-08-24T01:32:40;99490.50;;;29.03;34.66
73870;BME280;64924;42.140;24.762;2023-08-24T01:35:08;99524.41;;;29.33;35.03
73870;BME280;64924;42.140;24.762;2023-08-24T01:37:35;99537.22;;;29.34;34.92
73870;BME280;64924;42.140;24.762;2023-08-24T01:40:06;99538.88;;;29.35;34.98
73870;BME280;64924;42.140;24.762;2023-08-24T01:42:45;99527.34;;;29.27;34.88
73870;BME280;64924;42.140;24.762;2023-08-24T01:45:14;99485.03;;;28.98;35.44
73870;BME280;64924;42.140;24.762;2023-08-24T01:47:42;99525.63;;;29.18;35.43
73870;BME280;64924;42.140;24.762;2023-08-24T01:50:09;99523.31;;;29.11;35.59
73870;BME280;64924;42.140;24.762;2023-08-24T01:52:35;99527.75;;;29.12;35.25
73870;BME280;64924;42.140;24.762;2023-08-24T01:55:01;99515.19;;;29.01;35.65
73870;BME280;64924;42.140;24.762;2023-08-24T01:57:26;99509.91;;;29.00;35.80
73870;BME280;64924;42.140;24.762;2023-08-24T01:59:52;99525.59;;;29.09;35.99
73870;BME280;64924;42.140;24.762;2023-08-24T02:02:20;99501.84;;;28.98;35.82
73870;BME280;64924;42.140;24.762;2023-08-24T02:04:46;99494.25;;;28.90;35.70
73870;BME280;64924;42.140;24.762;2023-08-24T02:07:11;99472.94;;;28.80;35.61
73870;BME280;64924;42.140;24.762;2023-08-24T02:09:37;99520.81;;;29.10;35.84
73870;BME280;64924;42.140;24.762;2023-08-24T02:12:02;99507.28;;;29.03;35.79
73870;BME280;64924;42.140;24.762;2023-08-24T02:14:28;99531.69;;;29.11;35.78
73870;BME280;64924;42.140;24.762;2023-08-24T02:16:54;99525.09;;;29.07;35.70
73870;BME280;64924;42.140;24.762;2023-08-24T02:20:12;99522.34;;;29.16;35.76
73870;BME280;64924;42.140;24.762;2023-08-24T02:26:02;99524.53;;;28.97;36.05
73870;BME280;64924;42.140;24.762;2023-08-24T02:28:58;99512.38;;;29.01;35.97
73870;BME280;64924;42.140;24.762;2023-08-24T02:31:24;99517.69;;;28.80;36.47
73870;BME280;64924;42.140;24.762;2023-08-24T02:34:33;99521.53;;;28.84;36.57
73870;BME280;64924;42.140;24.762;2023-08-24T02:37:21;99534.03;;;28.65;36.95
73870;BME280;64924;42.140;24.762;2023-08-24T02:39:49;99546.50;;;28.58;37.17
73870;BME280;64924;42.140;24.762;2023-08-24T02:48:55;99527.81;;;28.45;37.65
73870;BME280;64924;42.140;24.762;2023-08-24T02:51:22;99525.66;;;28.42;37.55
73870;BME280;64924;42.140;24.762;2023-08-24T02:53:48;99522.84;;;28.42;37.67
73870;BME280;64924;42.140;24.762;2023-08-24T02:56:13;99539.13;;;28.40;37.52
73870;BME280;64924;42.140;24.762;2023-08-24T02:58:39;99522.16;;;28.37;37.52
73870;BME280;64924;42.140;24.762;2023-08-24T03:01:06;99516.56;;;28.37;37.54
73870;BME280;64924;42.140;24.762;2023-08-24T03:03:36;99527.31;;;28.43;37.22
73870;BME280;64924;42.140;24.762;2023-08-24T03:06:06;99516.47;;;28.28;37.50
73870;BME280;64924;42.140;24.762;2023-08-24T03:08:32;99519.50;;;28.18;37.86
73870;BME280;64924;42.140;24.762;2023-08-24T03:10:59;99507.22;;;28.05;37.53
73870;BME280;64924;42.140;24.762;2023-08-24T03:13:25;99522.22;;;28.09;37.88
73870;BME280;64924;42.140;24.762;2023-08-24T03:15:51;99528.94;;;28.08;37.63
73870;BME280;64924;42.140;24.762;2023-08-24T03:18:18;99528.63;;;28.10;37.82
73870;BME280;64924;42.140;24.762;2023-08-24T03:20:45;99530.81;;;28.13;37.80
73870;BME280;64924;42.140;24.762;2023-08-24T03:23:11;99522.66;;;28.03;37.46
73870;BME280;64924;42.140;24.762;2023-08-24T03:25:38;99528.22;;;28.16;37.73
73870;BME280;64924;42.140;24.762;2023-08-24T03:28:05;99532.47;;;28.14;37.51
73870;BME280;64924;42.140;24.762;2023-08-24T03:30:33;99531.00;;;28.16;37.63
73870;BME280;64924;42.140;24.762;2023-08-24T03:32:58;99534.81;;;28.20;37.30
73870;BME280;64924;42.140;24.762;2023-08-24T03:35:24;99533.72;;;28.21;37.31
73870;BME280;64924;42.140;24.762;2023-08-24T03:37:50;99549.38;;;28.31;37.43
73870;BME280;64924;42.140;24.762;2023-08-24T03:40:16;99547.34;;;28.23;37.08
73870;BME280;64924;42.140;24.762;2023-08-24T03:42:42;99540.22;;;28.17;37.04
73870;BME280;64924;42.140;24.762;2023-08-24T03:45:07;99506.84;;;27.98;36.98
73870;BME280;64924;42.140;24.762;2023-08-24T03:47:33;99508.78;;;27.98;36.95
73870;BME280;64924;42.140;24.762;2023-08-24T03:49:59;99545.69;;;28.22;36.89
73870;BME280;64924;42.140;24.762;2023-08-24T03:52:25;99556.63;;;28.32;36.80
73870;BME280;64924;42.140;24.762;2023-08-24T03:54:50;99546.59;;;28.31;36.58
73870;BME280;64924;42.140;24.762;2023-08-24T03:57:16;99506.41;;;28.05;36.65
73870;BME280;64924;42.140;24.762;2023-08-24T03:59:41;99555.56;;;28.42;36.15
73870;BME280;64924;42.140;24.762;2023-08-24T04:02:07;99564.84;;;28.51;36.53
73870;BME280;64924;42.140;24.762;2023-08-24T04:04:33;99553.72;;;28.59;36.15
73870;BME280;64924;42.140;24.762;2023-08-24T04:06:59;99553.13;;;28.85;36.09
73870;BME280;64924;42.140;24.762;2023-08-24T04:09:25;99564.06;;;29.04;35.22
73870;BME280;64924;42.140;24.762;2023-08-24T04:11:51;99567.56;;;29.09;34.92
73870;BME280;64924;42.140;24.762;2023-08-24T04:14:16;99564.63;;;29.14;35.26
73870;BME280;64924;42.140;24.762;2023-08-24T04:16:42;99467.16;;;28.77;35.00
73870;BME280;64924;42.140;24.762;2023-08-24T04:19:08;99552.03;;;29.65;34.46
73870;BME280;64924;42.140;24.762;2023-08-24T04:21:33;99553.97;;;30.04;33.51
73870;BME280;64924;42.140;24.762;2023-08-24T04:23:59;99554.00;;;30.39;33.26
73870;BME280;64924;42.140;24.762;2023-08-24T04:26:24;99561.59;;;30.73;32.50
73870;BME280;64924;42.140;24.762;2023-08-24T04:28:50;99559.41;;;30.87;32.30
73870;BME280;64924;42.140;24.762;2023-08-24T04:31:16;99569.47;;;30.88;32.30
73870;BME280;64924;42.140;24.762;2023-08-24T04:33:41;99554.94;;;30.86;32.51
73870;BME280;64924;42.140;24.762;2023-08-24T04:36:07;99578.44;;;31.37;31.71
73870;BME280;64924;42.140;24.762;2023-08-24T04:38:32;99576.31;;;31.80;30.96
73870;BME280;64924;42.140;24.762;2023-08-24T04:40:58;99509.78;;;31.93;30.29
73870;BME280;64924;42.140;24.762;2023-08-24T04:43:24;99518.47;;;32.42;29.01
73870;BME280;64924;42.140;24.762;2023-08-24T04:45:51;99518.78;;;32.82;28.73
73870;BME280;64924;42.140;24.762;2023-08-24T04:48:18;99530.28;;;33.46;27.67
73870;BME280;64924;42.140;24.762;2023-08-24T04:50:45;99575.97;;;34.37;26.83
73870;BME280;64924;42.140;24.762;2023-08-24T04:53:13;99569.88;;;34.91;26.12
73870;BME280;64924;42.140;24.762;2023-08-24T04:55:40;99573.72;;;35.27;25.34
73870;BME280;64924;42.140;24.762;2023-08-24T04:58:06;99581.28;;;35.38;25.52
73870;BME280;64924;42.140;24.762;2023-08-24T05:00:32;99570.78;;;35.70;25.05
73870;BME280;64924;42.140;24.762;2023-08-24T05:02:58;99582.91;;;36.02;24.53
73870;BME280;64924;42.140;24.762;2023-08-24T05:05:24;99590.84;;;36.28;24.89
73870;BME280;64924;42.140;24.762;2023-08-24T05:07:50;99582.56;;;36.74;23.90
73870;BME280;64924;42.140;24.762;2023-08-24T05:10:15;99560.88;;;37.24;23.65
73870;BME280;64924;42.140;24.762;2023-08-24T05:12:41;99573.50;;;37.72;23.09
73870;BME280;64924;42.140;24.762;2023-08-24T05:15:07;99580.38;;;37.97;22.83
73870;BME280;64924;42.140;24.762;2023-08-24T05:17:32;99570.22;;;37.96;22.60
73870;BME280;64924;42.140;24.762;2023-08-24T05:19:58;99571.84;;;38.20;22.41
73870;BME280;64924;42.140;24.762;2023-08-24T05:22:24;99539.00;;;38.19;22.26
73870;BME280;64924;42.140;24.762;2023-08-24T05:24:50;99571.47;;;38.52;22.14
73870;BME280;64924;42.140;24.762;2023-08-24T05:27:15;99574.44;;;38.59;21.92
73870;BME280;64924;42.140;24.762;2023-08-24T05:29:41;99581.81;;;38.67;22.07
73870;BME280;64924;42.140;24.762;2023-08-24T05:32:07;99575.13;;;38.82;22.14
73870;BME280;64924;42.140;24.762;2023-08-24T05:34:32;99578.97;;;38.67;21.81
73870;BME280;64924;42.140;24.762;2023-08-24T05:36:58;99545.81;;;38.15;22.20
73870;BME280;64924;42.140;24.762;2023-08-24T05:39:23;99593.19;;;38.67;21.70
73870;BME280;64924;42.140;24.762;2023-08-24T05:41:52;99565.94;;;38.96;21.61
73870;BME280;64924;42.140;24.762;2023-08-24T05:44:19;99588.84;;;39.47;21.18
73870;BME280;64924;42.140;24.762;2023-08-24T05:46:46;99574.78;;;40.16;20.47
73870;BME280;64924;42.140;24.762;2023-08-24T05:49:11;99585.78;;;40.90;19.92
73870;BME280;64924;42.140;24.762;2023-08-24T05:51:37;99578.97;;;41.27;19.84
73870;BME280;64924;42.140;24.762;2023-08-24T05:54:02;99532.84;;;40.79;19.52
73870;BME280;64924;42.140;24.762;2023-08-24T05:56:28;99559.78;;;41.06;19.46
73870;BME280;64924;42.140;24.762;2023-08-24T05:58:58;99579.09;;;40.51;19.78
73870;BME280;64924;42.140;24.762;2023-08-24T06:01:24;99576.22;;;40.51;20.18
73870;BME280;64924;42.140;24.762;2023-08-24T06:03:50;99576.91;;;41.13;19.72
73870;BME280;64924;42.140;24.762;2023-08-24T06:06:16;99572.94;;;41.78;18.77
73870;BME280;64924;42.140;24.762;2023-08-24T06:08:42;99577.34;;;42.43;18.05
73870;BME280;64924;42.140;24.762;2023-08-24T06:11:07;99585.22;;;43.16;17.18
73870;BME280;64924;42.140;24.762;2023-08-24T06:13:33;99576.78;;;42.87;17.24
73870;BME280;64924;42.140;24.762;2023-08-24T06:15:58;99520.56;;;42.56;17.37
73870;BME280;64924;42.140;24.762;2023-08-24T06:18:24;99544.38;;;43.12;16.66
73870;BME280;64924;42.140;24.762;2023-08-24T06:20:50;99529.19;;;43.25;16.70
73870;BME280;64924;42.140;24.762;2023-08-24T06:23:18;99574.66;;;43.72;17.00
73870;BME280;64924;42.140;24.762;2023-08-24T06:25:44;99570.63;;;43.62;16.32
73870;BME280;64924;42.140;24.762;2023-08-24T06:28:10;99567.13;;;42.56;17.11
73870;BME280;64924;42.140;24.762;2023-08-24T06:30:42;99580.19;;;41.22;18.67
73870;BME280;64924;42.140;24.762;2023-08-24T06:33:09;99584.28;;;39.83;19.82
73870;BME280;64924;42.140;24.762;2023-08-24T06:35:36;99595.31;;;38.73;20.94
73870;BME280;64924;42.140;24.762;2023-08-24T06:38:02;99582.16;;;37.60;22.49
73870;BME280;64924;42.140;24.762;2023-08-24T06:40:28;99582.81;;;36.69;23.38
73870;BME280;64924;42.140;24.762;2023-08-24T06:42:54;99597.81;;;35.83;24.63
73870;BME280;64924;42.140;24.762;2023-08-24T06:45:20;99564.78;;;34.97;25.38
73870;BME280;64924;42.140;24.762;2023-08-24T06:47:45;99602.66;;;34.68;26.06
73870;BME280;64924;42.140;24.762;2023-08-24T06:50:12;99615.47;;;34.37;26.46
73870;BME280;64924;42.140;24.762;2023-08-24T06:52:38;99592.19;;;33.67;27.58
73870;BME280;64924;42.140;24.762;2023-08-24T06:55:04;99636.06;;;33.44;28.06
73870;BME280;64924;42.140;24.762;2023-08-24T06:57:30;99626.53;;;33.03;28.26
73870;BME280;64924;42.140;24.762;2023-08-24T06:59:55;99652.72;;;33.04;28.95
73870;BME280;64924;42.140;24.762;2023-08-24T07:02:21;99670.16;;;32.97;30.37
73870;BME280;64924;42.140;24.762;2023-08-24T07:04:48;99670.38;;;32.92;32.16
73870;BME280;64924;42.140;24.762;2023-08-24T07:07:13;99642.00;;;32.97;33.99
73870;BME280;64924;42.140;24.762;2023-08-24T07:09:39;99620.47;;;33.13;34.00
73870;BME280;64924;42.140;24.762;2023-08-24T07:12:05;99606.06;;;33.72;33.40
73870;BME280;64924;42.140;24.762;2023-08-24T07:14:35;99591.28;;;34.92;32.65
73870;BME280;64924;42.140;24.762;2023-08-24T07:17:01;99578.00;;;35.68;32.05
73870;BME280;64924;42.140;24.762;2023-08-24T07:19:26;99598.56;;;36.66;30.26
73870;BME280;64924;42.140;24.762;2023-08-24T07:21:52;99584.63;;;37.61;28.62
73870;BME280;64924;42.140;24.762;2023-08-24T07:24:18;99582.28;;;38.42;27.92
73870;BME280;64924;42.140;24.762;2023-08-24T07:26:48;99590.94;;;39.13;27.38
73870;BME280;64924;42.140;24.762;2023-08-24T07:29:13;99577.63;;;39.61;26.39
73870;BME280;64924;42.140;24.762;2023-08-24T07:31:39;99544.09;;;39.88;25.03
73870;BME280;64924;42.140;24.762;2023-08-24T07:34:05;99589.56;;;40.32;24.42
73870;BME280;64924;42.140;24.762;2023-08-24T07:36:30;99600.06;;;40.25;24.32
73870;BME280;64924;42.140;24.762;2023-08-24T07:38:56;99591.91;;;39.28;25.67
73870;BME280;64924;42.140;24.762;2023-08-24T07:41:21;99596.50;;;37.67;27.69
73870;BME280;64924;42.140;24.762;2023-08-24T07:43:47;99600.97;;;36.48;29.36
73870;BME280;64924;42.140;24.762;2023-08-24T07:46:13;99594.41;;;36.09;30.15
73870;BME280;64924;42.140;24.762;2023-08-24T07:48:39;99605.56;;;35.87;30.87
73870;BME280;64924;42.140;24.762;2023-08-24T07:51:04;99622.63;;;35.90;30.05
73870;BME280;64924;42.140;24.762;2023-08-24T07:53:30;99605.94;;;36.01;30.57
73870;BME280;64924;42.140;24.762;2023-08-24T07:55:58;99602.53;;;36.27;30.23
73870;BME280;64924;42.140;24.762;2023-08-24T07:58:24;99620.84;;;36.87;30.06
73870;BME280;64924;42.140;24.762;2023-08-24T08:00:50;99589.47;;;36.96;30.06
73870;BME280;64924;42.140;24.762;2023-08-24T08:03:18;99626.31;;;37.80;29.46
73870;BME280;64924;42.140;24.762;2023-08-24T08:05:43;99604.97;;;38.69;27.69
73870;BME280;64924;42.140;24.762;2023-08-24T08:08:09;99599.53;;;39.57;25.80
73870;BME280;64924;42.140;24.762;2023-08-24T08:10:34;99600.97;;;40.32;25.03
73870;BME280;64924;42.140;24.762;2023-08-24T08:13:00;99598.47;;;41.07;24.18
73870;BME280;64924;42.140;24.762;2023-08-24T08:15:25;99592.50;;;41.72;22.95
73870;BME280;64924;42.140;24.762;2023-08-24T08:17:51;99598.59;;;41.99;21.82
73870;BME280;64924;42.140;24.762;2023-08-24T08:20:16;99586.78;;;42.19;21.57
73870;BME280;64924;42.140;24.762;2023-08-24T08:22:42;99589.19;;;42.42;21.45
73870;BME280;64924;42.140;24.762;2023-08-24T08:25:07;99591.25;;;42.27;21.29
73870;BME280;64924;42.140;24.762;2023-08-24T08:27:33;99598.19;;;41.44;22.02
73870;BME280;64924;42.140;24.762;2023-08-24T08:29:58;99583.47;;;41.28;22.03
73870;BME280;64924;42.140;24.762;2023-08-24T08:32:24;99600.91;;;41.01;21.58
73870;BME280;64924;42.140;24.762;2023-08-24T08:34:53;99583.31;;;40.78;22.40
73870;BME280;64924;42.140;24.762;2023-08-24T08:37:20;99586.94;;;40.71;22.06
73870;BME280;64924;42.140;24.762;2023-08-24T08:39:46;99573.16;;;40.91;22.59
73870;BME280;64924;42.140;24.762;2023-08-24T08:42:14;99572.09;;;41.42;21.84
73870;BME280;64924;42.140;24.762;2023-08-24T08:44:41;99579.88;;;41.63;22.15
73870;BME280;64924;42.140;24.762;2023-08-24T08:47:09;99579.84;;;41.59;21.58
73870;BME280;64924;42.140;24.762;2023-08-24T08:49:38;99572.50;;;41.51;21.41
73870;BME280;64924;42.140;24.762;2023-08-24T08:52:04;99566.69;;;40.98;22.41
73870;BME280;64924;42.140;24.762;2023-08-24T08:54:30;99571.16;;;40.19;22.72
73870;BME280;64924;42.140;24.762;2023-08-24T08:56:58;99568.59;;;39.52;23.51
73870;BME280;64924;42.140;24.762;2023-08-24T08:59:26;99568.66;;;39.19;23.68
73870;BME280;64924;42.140;24.762;2023-08-24T09:01:56;99568.66;;;38.85;24.54
73870;BME280;64924;42.140;24.762;2023-08-24T09:04:23;99569.44;;;38.52;25.12
73870;BME280;64924;42.140;24.762;2023-08-24T09:06:49;99566.31;;;38.31;25.44
73870;BME280;64924;42.140;24.762;2023-08-24T09:09:15;99524.34;;;37.91;25.80
73870;BME280;64924;42.140;24.762;2023-08-24T09:11:41;99573.25;;;38.07;26.20
73870;BME280;64924;42.140;24.762;2023-08-24T09:14:07;99559.38;;;38.02;26.38
73870;BME280;64924;42.140;24.762;2023-08-24T09:16:34;99548.59;;;37.85;26.77
73870;BME280;64924;42.140;24.762;2023-08-24T09:19:04;99567.81;;;37.72;26.79
73870;BME280;64924;42.140;24.762;2023-08-24T09:21:30;99556.09;;;37.51;27.45
73870;BME280;64924;42.140;24.762;2023-08-24T09:23:56;99559.16;;;37.88;27.55
73870;BME280;64924;42.140;24.762;2023-08-24T09:26:32;99558.94;;;38.26;27.08
73870;BME280;64924;42.140;24.762;2023-08-24T09:29:00;99564.91;;;38.47;27.14
73870;BME280;64924;42.140;24.762;2023-08-24T09:31:38;99553.84;;;38.69;27.43
73870;BME280;64924;42.140;24.762;2023-08-24T09:34:05;99547.53;;;38.83;26.61
73870;BME280;64924;42.140;24.762;2023-08-24T09:36:34;99515.00;;;38.76;25.73
73870;BME280;64924;42.140;24.762;2023-08-24T09:39:00;99549.47;;;39.08;25.53
73870;BME280;64924;42.140;24.762;2023-08-24T09:41:51;99545.06;;;38.81;24.78
73870;BME280;64924;42.140;24.762;2023-08-24T09:44:17;99550.53;;;38.33;25.64
73870;BME280;64924;42.140;24.762;2023-08-24T09:46:43;99540.03;;;38.37;25.45
73870;BME280;64924;42.140;24.762;2023-08-24T09:49:10;99525.81;;;38.07;24.98
73870;BME280;64924;42.140;24.762;2023-08-24T09:51:38;99439.13;;;37.57;25.22
73870;BME280;64924;42.140;24.762;2023-08-24T09:54:06;99533.94;;;38.09;24.81
73870;BME280;64924;42.140;24.762;2023-08-24T09:56:38;99521.34;;;38.06;24.96
73870;BME280;64924;42.140;24.762;2023-08-24T09:59:17;99530.22;;;38.31;24.83
73870;BME280;64924;42.140;24.762;2023-08-24T10:01:49;99551.22;;;38.23;25.53
73870;BME280;64924;42.140;24.762;2023-08-24T10:04:18;99533.00;;;38.24;25.54
73870;BME280;64924;42.140;24.762;2023-08-24T10:06:49;99529.47;;;38.08;25.47
73870;BME280;64924;42.140;24.762;2023-08-24T10:09:23;99521.59;;;38.21;25.61
73870;BME280;64924;42.140;24.762;2023-08-24T10:11:56;99502.91;;;38.20;26.04
73870;BME280;64924;42.140;24.762;2023-08-24T10:14:43;99534.47;;;38.44;26.08
73870;BME280;64924;42.140;24.762;2023-08-24T10:17:10;99497.16;;;37.86;26.47
73870;BME280;64924;42.140;24.762;2023-08-24T10:19:36;99503.91;;;37.78;26.92
73870;BME280;64924;42.140;24.762;2023-08-24T10:22:02;99474.19;;;37.68;26.86
73870;BME280;64924;42.140;24.762;2023-08-24T10:24:29;99509.63;;;37.82;26.83
73870;BME280;64924;42.140;24.762;2023-08-24T10:26:55;99504.63;;;37.71;26.63
73870;BME280;64924;42.140;24.762;2023-08-24T10:29:23;99508.88;;;37.85;26.81
73870;BME280;64924;42.140;24.762;2023-08-24T10:31:49;99477.75;;;37.92;26.61
73870;BME280;64924;42.140;24.762;2023-08-24T10:34:15;99481.59;;;38.06;25.46
73870;BME280;64924;42.140;24.762;2023-08-24T10:36:41;99438.78;;;37.89;24.58
73870;BME280;64924;42.140;24.762;2023-08-24T10:39:07;99480.31;;;38.30;24.48
73870;BME280;64924;42.140;24.762;2023-08-24T10:41:51;99472.03;;;38.48;24.65
73870;BME280;64924;42.140;24.762;2023-08-24T10:44:37;99474.88;;;38.48;24.59
73870;BME280;64924;42.140;24.762;2023-08-24T10:47:17;99459.53;;;38.19;23.71
73870;BME280;64924;42.140;24.762;2023-08-24T10:49:45;99447.88;;;37.71;24.90
73870;BME280;64924;42.140;24.762;2023-08-24T10:52:21;99434.47;;;37.42;25.57
73870;BME280;64924;42.140;24.762;2023-08-24T10:54:48;99424.47;;;37.25;26.14
73870;BME280;64924;42.140;24.762;2023-08-24T10:57:18;99463.22;;;37.67;26.36
73870;BME280;64924;42.140;24.762;2023-08-24T10:59:45;99453.22;;;37.50;25.79
73870;BME280;64924;42.140;24.762;2023-08-24T11:02:23;99458.00;;;37.46;25.24
73870;BME280;64924;42.140;24.762;2023-08-24T11:05:14;99453.38;;;37.61;25.30
73870;BME280;64924;42.140;24.762;2023-08-24T11:10:23;99437.81;;;37.51;25.66
73870;BME280;64924;42.140;24.762;2023-08-24T11:13:18;99434.66;;;37.56;25.82
73870;BME280;64924;42.140;24.762;2023-08-24T11:15:49;99444.66;;;37.46;26.44
73870;BME280;64924;42.140;24.762;2023-08-24T11:18:26;99433.91;;;37.59;26.08
73870;BME280;64924;42.140;24.762;2023-08-24T11:21:00;99425.59;;;37.70;26.70
73870;BME280;64924;42.140;24.762;2023-08-24T11:23:26;99407.41;;;37.74;26.10
73870;BME280;64924;42.140;24.762;2023-08-24T11:25:53;99419.19;;;37.76;25.72
73870;BME280;64924;42.140;24.762;2023-08-24T11:28:22;99409.97;;;37.83;26.01
73870;BME280;64924;42.140;24.762;2023-08-24T11:30:48;99323.56;;;37.47;25.51
73870;BME280;64924;42.140;24.762;2023-08-24T11:33:14;99392.72;;;37.99;25.24
73870;BME280;64924;42.140;24.762;2023-08-24T11:35:44;99386.75;;;38.07;24.72
73870;BME280;64924;42.140;24.762;2023-08-24T11:38:10;99361.66;;;38.09;24.18
73870;BME280;64924;42.140;24.762;2023-08-24T11:40:36;99361.09;;;38.30;23.75
73870;BME280;64924;42.140;24.762;2023-08-24T11:43:03;99351.31;;;38.28;23.08
73870;BME280;64924;42.140;24.762;2023-08-24T11:45:31;99365.00;;;38.15;22.28
73870;BME280;64924;42.140;24.762;2023-08-24T11:47:58;99363.16;;;38.33;22.75
73870;BME280;64924;42.140;24.762;2023-08-24T11:50:25;99350.50;;;38.24;23.00
73870;BME280;64924;42.140;24.762;2023-08-24T11:52:52;99355.16;;;38.42;22.97
73870;BME280;64924;42.140;24.762;2023-08-24T11:55:20;99351.56;;;38.49;22.41
73870;BME280;64924;42.140;24.762;2023-08-24T11:57:45;99349.63;;;38.57;22.35
73870;BME280;64924;42.140;24.762;2023-08-24T12:00:11;99343.66;;;38.69;22.32
73870;BME280;64924;42.140;24.762;2023-08-24T12:02:40;99301.50;;;38.34;22.64
73870;BME280;64924;42.140;24.762;2023-08-24T12:05:06;99335.50;;;38.64;22.82
73870;BME280;64924;42.140;24.762;2023-08-24T12:07:33;99343.81;;;38.87;22.25
73870;BME280;64924;42.140;24.762;2023-08-24T12:10:02;99334.56;;;39.00;21.88
73870;BME280;64924;42.140;24.762;2023-08-24T12:12:28;99338.69;;;39.03;21.65
73870;BME280;64924;42.140;24.762;2023-08-24T12:14:55;99335.50;;;39.11;21.34
73870;BME280;64924;42.140;24.762;2023-08-24T12:17:20;99326.22;;;39.22;21.48
73870;BME280;64924;42.140;24.762;2023-08-24T12:19:58;99327.53;;;39.35;20.99
73870;BME280;64924;42.140;24.762;2023-08-24T12:22:25;99323.81;;;39.24;20.95
73870;BME280;64924;42.140;24.762;2023-08-24T12:24:51;99307.44;;;39.06;21.05
73870;BME280;64924;42.140;24.762;2023-08-24T12:27:23;99312.31;;;39.06;21.13
73870;BME280;64924;42.140;24.762;2023-08-24T12:29:50;99298.84;;;38.99;21.16
73870;BME280;64924;42.140;24.762;2023-08-24T12:32:17;99290.81;;;39.08;21.40
73870;BME280;64924;42.140;24.762;2023-08-24T12:34:45;99286.44;;;39.22;21.42
73870;BME280;64924;42.140;24.762;2023-08-24T12:37:11;99284.84;;;39.28;21.16
73870;BME280;64924;42.140;24.762;2023-08-24T12:39:39;99282.41;;;39.26;21.47
73870;BME280;64924;42.140;24.762;2023-08-24T12:42:05;99290.88;;;39.16;20.94
73870;BME280;64924;42.140;24.762;2023-08-24T12:44:31;99281.97;;;39.24;21.04
73870;BME280;64924;42.140;24.762;2023-08-24T12:46:58;99284.84;;;39.28;20.81
73870;BME280;64924;42.140;24.762;2023-08-24T12:49:24;99286.47;;;39.29;21.08
73870;BME280;64924;42.140;24.762;2023-08-24T12:51:49;99284.88;;;39.31;20.76
73870;BME280;64924;42.140;24.762;2023-08-24T12:54:15;99226.56;;;39.00;20.94
73870;BME280;64924;42.140;24.762;2023-08-24T12:56:41;99292.63;;;39.41;20.90
73870;BME280;64924;42.140;24.762;2023-08-24T12:59:06;99281.59;;;39.26;20.77
73870;BME280;64924;42.140;24.762;2023-08-24T13:01:32;99302.50;;;39.00;20.56
73870;BME280;64924;42.140;24.762;2023-08-24T13:03:57;99285.44;;;38.96;20.52
73870;BME280;64924;42.140;24.762;2023-08-24T13:06:23;99284.22;;;38.94;20.47
73870;BME280;64924;42.140;24.762;2023-08-24T13:08:48;99287.19;;;39.11;20.05
73870;BME280;64924;42.140;24.762;2023-08-24T13:11:14;99281.53;;;39.19;19.79